createdAt,value
2023-02-25T00:02:08.532Z,98903.59
2023-02-25T00:04:37.279Z,98904.06
2023-02-25T00:07:05.730Z,98900.69
2023-02-25T00:09:34.302Z,98905.94
2023-02-25T00:12:03.105Z,98903.25
2023-02-25T00:14:31.541Z,98902.94
2023-02-25T00:17:02.243Z,98917.38
2023-02-25T00:19:30.713Z,98900.44
2023-02-25T00:21:59.132Z,98902.34
2023-02-25T00:24:27.545Z,98912.91
2023-02-25T00:26:55.940Z,98908.44
2023-02-25T00:29:24.340Z,98902.59
2023-02-25T00:31:52.983Z,98906.03
2023-02-25T00:34:22.834Z,98910.50
2023-02-25T00:36:51.348Z,98905.97
2023-02-25T00:39:20.235Z,98903.22
2023-02-25T00:41:48.670Z,98907.22
2023-02-25T00:44:17.188Z,98910.00
2023-02-25T00:46:45.718Z,98912.66
2023-02-25T00:49:27.048Z,98933.25
2023-02-25T00:52:01.950Z,98928.25
2023-02-25T00:54:30.548Z,98914.22
2023-02-25T00:56:59.068Z,98929.03
2023-02-25T00:59:27.481Z,98929.25
2023-02-25T01:01:56.044Z,98932.47
2023-02-25T01:04:24.725Z,98928.78
2023-02-25T01:06:54.224Z,98926.94
2023-02-25T01:09:24.030Z,98932.47
2023-02-25T01:11:53.127Z,98931.09
2023-02-25T01:14:25.025Z,98940.91
2023-02-25T01:16:56.248Z,98932.34
2023-02-25T01:19:27.038Z,98936.16
2023-02-25T01:21:59.569Z,98943.72
2023-02-25T01:24:31.631Z,98943.22
2023-02-25T01:27:03.355Z,98946.91
2023-02-25T01:29:34.181Z,98936.63
2023-02-25T01:32:04.625Z,98927.91
2023-02-25T01:34:34.042Z,98927.66
2023-02-25T01:37:05.090Z,98916.75
2023-02-25T01:39:35.439Z,98924.44
2023-02-25T01:42:12.970Z,98914.13
2023-02-25T01:45:31.446Z,98919.41
2023-02-25T01:48:14.483Z,98917.22
2023-02-25T01:50:49.261Z,98937.84
2023-02-25T01:53:23.178Z,98936.25
2023-02-25T01:55:54.185Z,98926.72
2023-02-25T01:58:23.640Z,98936.97
2023-02-25T02:00:55.554Z,98927.22
2023-02-25T02:03:26.761Z,98939.59
2023-02-25T02:06:06.833Z,98937.44
2023-02-25T02:08:36.810Z,98935.59
2023-02-25T02:11:07.192Z,98936.06
2023-02-25T02:13:39.052Z,98933.19
2023-02-25T02:16:26.137Z,98946.59
2023-02-25T02:18:59.825Z,98929.19
2023-02-25T02:21:51.158Z,98925.13
2023-02-25T02:25:01.225Z,98942.28
2023-02-25T02:27:47.710Z,98947.22
2023-02-25T02:30:38.504Z,98933.16
2023-02-25T02:33:15.599Z,98933.94
2023-02-25T02:35:53.701Z,98946.88
2023-02-25T02:38:32.494Z,98941.53
2023-02-25T02:41:09.793Z,98942.66
2023-02-25T02:43:44.055Z,98961.66
2023-02-25T02:46:22.160Z,98943.69
2023-02-25T02:48:57.448Z,98942.56
2023-02-25T02:51:33.128Z,98942.91
2023-02-25T02:54:06.042Z,98942.91
2023-02-25T02:56:37.363Z,98953.66
2023-02-25T02:59:09.769Z,98953.09
2023-02-25T03:01:43.777Z,98953.91
2023-02-25T03:04:22.266Z,98955.16
2023-02-25T03:06:57.002Z,98957.53
2023-02-25T03:09:33.562Z,98969.94
2023-02-25T03:12:02.238Z,98963.66
2023-02-25T03:14:33.829Z,98965.13
2023-02-25T03:17:08.476Z,98968.00
2023-02-25T03:19:43.334Z,98964.81
2023-02-25T03:22:15.635Z,98965.03
2023-02-25T03:24:52.042Z,98965.81
2023-02-25T03:27:28.499Z,98967.13
2023-02-25T03:30:07.858Z,98968.13
2023-02-25T03:32:38.555Z,98970.75
2023-02-25T03:35:11.141Z,98970.75
2023-02-25T03:37:43.577Z,98971.34
2023-02-25T03:40:15.258Z,98972.59
2023-02-25T03:42:48.701Z,98978.66
2023-02-25T03:45:19.067Z,98974.19
2023-02-25T03:47:48.492Z,98978.66
2023-02-25T03:50:24.276Z,98976.81
2023-02-25T03:52:58.057Z,98971.56
2023-02-25T03:55:49.241Z,98976.28
2023-02-25T03:58:17.746Z,98982.34
2023-02-25T04:00:49.114Z,98978.13
2023-02-25T04:03:17.457Z,98977.06
2023-02-25T04:05:48.736Z,98981.53
2023-02-25T04:08:17.087Z,98984.19
2023-02-25T04:10:48.059Z,98993.66
2023-02-25T04:13:20.921Z,98991.28
2023-02-25T04:15:51.843Z,98989.66
2023-02-25T04:18:20.935Z,98989.66
2023-02-25T04:20:50.701Z,98992.28
2023-02-25T04:23:19.024Z,98999.63
2023-02-25T04:25:47.356Z,98991.16
2023-02-25T04:28:15.702Z,98993.00
2023-02-25T04:30:44.589Z,98997.22
2023-02-25T04:33:13.651Z,99007.75
2023-02-25T04:35:42.105Z,99005.38
2023-02-25T04:38:11.933Z,98998.50
2023-02-25T04:40:40.313Z,99006.41
2023-02-25T04:43:09.918Z,99008.25
2023-02-25T04:45:38.387Z,99007.41
2023-02-25T04:48:07.618Z,99002.16
2023-02-25T04:50:35.943Z,99011.69
2023-02-25T04:53:04.455Z,99003.19
2023-02-25T04:55:36.983Z,98999.75
2023-02-25T04:58:05.346Z,99002.63
2023-02-25T05:00:33.762Z,99001.25
2023-02-25T05:03:02.084Z,98998.63
2023-02-25T05:05:30.460Z,99002.31
2023-02-25T05:07:58.780Z,99005.72
2023-02-25T05:10:27.094Z,99007.56
2023-02-25T05:12:56.904Z,99007.56
2023-02-25T05:15:25.452Z,98995.41
2023-02-25T05:17:53.822Z,98996.22
2023-02-25T05:20:23.149Z,99001.47
2023-02-25T05:22:51.530Z,99002.31
2023-02-25T05:25:20.142Z,98997.84
2023-02-25T05:27:48.838Z,99002.31
2023-02-25T05:30:19.682Z,99004.09
2023-02-25T05:32:48.188Z,99006.75
2023-02-25T05:35:16.780Z,98994.84
2023-02-25T05:37:45.180Z,98995.41
2023-02-25T05:40:14.825Z,98999.31
2023-02-25T05:42:43.180Z,98994.63
2023-02-25T05:45:12.436Z,98995.06
2023-02-25T05:47:42.155Z,98996.91
2023-02-25T05:50:12.119Z,98997.94
2023-02-25T05:52:40.460Z,99004.81
2023-02-25T05:55:10.432Z,99014.78
2023-02-25T05:57:38.886Z,99015.59
2023-02-25T06:00:10.038Z,98996.56
2023-02-25T06:02:44.274Z,99004.47
2023-02-25T06:05:12.788Z,99001.03
2023-02-25T06:07:41.157Z,99008.94
2023-02-25T06:10:11.676Z,99001.28
2023-02-25T06:12:40.178Z,99002.28
2023-02-25T06:15:09.829Z,98998.66
2023-02-25T06:17:38.189Z,98995.44
2023-02-25T06:20:10.552Z,99005.97
2023-02-25T06:22:38.946Z,99011.69
2023-02-25T06:25:09.018Z,99011.13
2023-02-25T06:27:37.335Z,99013.75
2023-02-25T06:30:06.711Z,99020.03
2023-02-25T06:32:35.157Z,99020.88
2023-02-25T06:35:03.649Z,99025.31
2023-02-25T06:37:33.553Z,99031.41
2023-02-25T06:40:01.888Z,99026.34
2023-02-25T06:42:30.226Z,99032.19
2023-02-25T06:44:58.673Z,99033.00
2023-02-25T06:47:27.011Z,99051.41
2023-02-25T06:49:55.314Z,99057.47
2023-02-25T06:52:23.855Z,99046.16
2023-02-25T06:54:53.613Z,99048.00
2023-02-25T06:57:21.953Z,99048.00
2023-02-25T06:59:50.397Z,99048.78
2023-02-25T07:02:18.705Z,99051.41
2023-02-25T07:04:47.344Z,99049.59
2023-02-25T07:07:15.734Z,99048.00
2023-02-25T07:09:44.067Z,99062.75
2023-02-25T07:12:14.231Z,99058.53
2023-02-25T07:14:42.969Z,99054.25
2023-02-25T07:17:11.251Z,99071.69
2023-02-25T07:19:39.624Z,99072.69
2023-02-25T07:22:09.921Z,99066.88
2023-02-25T07:24:39.015Z,99071.34
2023-02-25T07:27:08.111Z,99083.47
2023-02-25T07:29:37.817Z,99085.31
2023-02-25T07:32:07.166Z,99081.88
2023-02-25T07:34:35.698Z,99086.34
2023-02-25T07:37:04.014Z,99080.47
2023-02-25T07:39:32.334Z,99086.53
2023-02-25T07:42:00.705Z,99076.03
2023-02-25T07:44:30.219Z,99079.44
2023-02-25T07:46:59.905Z,99076.81
2023-02-25T07:49:28.348Z,99080.25
2023-02-25T07:51:56.712Z,99080.25
2023-02-25T07:54:25.126Z,99101.31
2023-02-25T07:56:53.655Z,99096.88
2023-02-25T07:59:23.139Z,99094.44
2023-02-25T08:01:51.444Z,99088.97
2023-02-25T08:04:21.313Z,99091.59
2023-02-25T08:06:49.776Z,99091.38
2023-02-25T08:09:18.492Z,99089.78
2023-02-25T08:11:48.103Z,99091.59
2023-02-25T08:14:16.461Z,99096.03
2023-02-25T08:16:44.783Z,99093.41
2023-02-25T08:19:13.110Z,99089.19
2023-02-25T08:21:48.485Z,99091.81
2023-02-25T08:24:20.712Z,99086.00
2023-02-25T08:26:51.392Z,99087.78
2023-02-25T08:29:19.866Z,99086.53
2023-02-25T08:31:49.108Z,99095.25
2023-02-25T08:34:18.163Z,99091.81
2023-02-25T08:36:47.939Z,99088.63
2023-02-25T08:39:17.183Z,99091.00
2023-02-25T08:41:45.950Z,99088.13
2023-02-25T08:44:14.319Z,99088.13
2023-02-25T08:46:43.322Z,99090.56
2023-02-25T08:49:11.775Z,99089.53
2023-02-25T08:51:40.979Z,99087.13
2023-02-25T08:54:15.795Z,99088.97
2023-02-25T08:56:45.689Z,99096.03
2023-02-25T08:59:17.120Z,99086.78
2023-02-25T09:01:46.393Z,99091.81
2023-02-25T09:04:17.367Z,99097.88
2023-02-25T09:06:48.100Z,99093.66
2023-02-25T09:09:19.811Z,99097.31
2023-02-25T09:11:50.200Z,99093.06
2023-02-25T09:14:19.578Z,99090.44
2023-02-25T09:16:48.394Z,99100.16
2023-02-25T09:19:18.564Z,99096.72
2023-02-25T09:21:48.978Z,99091.47
2023-02-25T09:24:20.308Z,99105.22
2023-02-25T09:26:49.262Z,99099.16
2023-02-25T09:29:18.051Z,99116.31
2023-02-25T09:31:46.589Z,99107.59
2023-02-25T09:34:15.057Z,99104.63
2023-02-25T09:36:43.860Z,99110.34
2023-02-25T09:39:12.317Z,99104.72
2023-02-25T09:41:55.583Z,99101.75
2023-02-25T09:44:28.498Z,99104.38
2023-02-25T09:47:02.861Z,99096.72
2023-02-25T09:49:36.932Z,99099.34
2023-02-25T09:52:14.321Z,99091.66
2023-02-25T09:54:47.048Z,99104.63
2023-02-25T09:57:20.090Z,99095.34
2023-02-25T09:59:49.667Z,99101.03
2023-02-25T10:02:30.388Z,99092.34
2023-02-25T10:05:19.223Z,99095.00
2023-02-25T10:07:59.338Z,99083.22
2023-02-25T10:10:39.698Z,99088.03
2023-02-25T10:13:25.398Z,99083.31
2023-02-25T10:16:07.356Z,99083.91
2023-02-25T10:18:54.956Z,99077.59
2023-02-25T10:21:43.273Z,99072.94
2023-02-25T10:24:28.371Z,99076.91
2023-02-25T10:27:05.222Z,99076.72
2023-02-25T10:29:46.676Z,99076.25
2023-02-25T10:32:21.914Z,99082.88
2023-02-25T10:34:52.778Z,99077.59
2023-02-25T10:37:27.231Z,99087.34
2023-02-25T10:40:05.112Z,99082.06
2023-02-25T10:42:33.891Z,99090.56
2023-02-25T10:45:15.014Z,99088.50
2023-02-25T10:47:48.870Z,99094.34
2023-02-25T10:50:42.776Z,99094.94
2023-02-25T10:53:17.082Z,99086.00
2023-02-25T10:55:53.980Z,99086.78
2023-02-25T10:58:33.376Z,99087.94
2023-02-25T11:01:10.347Z,99076.16
2023-02-25T11:03:48.396Z,99073.28
2023-02-25T11:06:24.911Z,99077.50
2023-02-25T11:08:56.466Z,99074.66
2023-02-25T11:11:30.379Z,99079.94
2023-02-25T11:14:14.404Z,99077.03
2023-02-25T11:16:46.039Z,99076.84
2023-02-25T11:19:23.021Z,99086.09
2023-02-25T11:21:52.675Z,99085.09
2023-02-25T11:24:33.379Z,99093.78
2023-02-25T11:27:03.972Z,99079.56
2023-02-25T11:29:35.351Z,99080.03
2023-02-25T11:32:17.342Z,99074.31
2023-02-25T11:34:50.959Z,99082.19
2023-02-25T11:37:37.175Z,99084.84
2023-02-25T11:40:26.207Z,99083.00
2023-02-25T11:43:18.107Z,99075.56
2023-02-25T11:45:57.015Z,99066.66
2023-02-25T11:48:39.222Z,99069.84
2023-02-25T11:51:21.308Z,99056.13
2023-02-25T11:54:05.812Z,99064.56
2023-02-25T11:56:38.164Z,99061.25
2023-02-25T11:59:31.755Z,99060.22
2023-02-25T12:02:24.080Z,99063.41
2023-02-25T12:05:47.753Z,99057.13
2023-02-25T12:08:40.228Z,99061.34
2023-02-25T12:11:44.716Z,99056.69
2023-02-25T12:15:01.687Z,99055.06
2023-02-25T12:18:21.371Z,99042.47
2023-02-25T12:21:44.892Z,99046.94
2023-02-25T12:24:43.487Z,99025.16
2023-02-25T12:27:48.381Z,99037.88
2023-02-25T12:31:02.980Z,99041.84
2023-02-25T12:34:00.045Z,99024.78
2023-02-25T12:36:49.954Z,99026.72
2023-02-25T12:39:43.030Z,99022.81
2023-02-25T12:42:34.168Z,99024.75
2023-02-25T12:45:45.369Z,99025.59
2023-02-25T12:49:08.503Z,99029.81
2023-02-25T12:52:23.147Z,99024.53
2023-02-25T12:55:19.002Z,99029.69
2023-02-25T12:58:07.762Z,99030.50
2023-02-25T13:01:22.392Z,99023.63
2023-02-25T13:04:14.990Z,99023.88
2023-02-25T13:07:20.187Z,99028.69
2023-02-25T13:10:09.376Z,99020.53
2023-02-25T13:13:14.068Z,99037.13
2023-02-25T13:15:56.875Z,99026.03
2023-02-25T13:18:36.536Z,99033.50
2023-02-25T13:21:26.610Z,99015.25
2023-02-25T13:24:30.159Z,99014.91
2023-02-25T13:27:35.158Z,99020.44
2023-02-25T13:30:31.112Z,99066.81
2023-02-25T13:33:13.972Z,99072.78
2023-02-25T13:35:54.856Z,99073.38
2023-02-25T13:38:39.706Z,99074.09
2023-02-25T13:41:47.696Z,99065.97
2023-02-25T13:44:52.126Z,99061.84
2023-02-25T13:47:41.815Z,99056.78
2023-02-25T13:50:56.836Z,99065.81
2023-02-25T13:53:47.725Z,99061.59
2023-02-25T13:56:42.995Z,99048.44
2023-02-25T13:59:33.489Z,99054.50
2023-02-25T14:02:27.396Z,99051.41
2023-02-25T14:05:35.681Z,99050.97
2023-02-25T14:08:22.442Z,99057.38
2023-02-25T14:11:02.289Z,99055.88
2023-02-25T14:14:29.799Z,99047.63
2023-02-25T14:17:38.120Z,99052.88
2023-02-25T14:20:22.106Z,99057.47
2023-02-25T14:22:54.155Z,99054.94
2023-02-25T14:25:53.505Z,99063.19
2023-02-25T14:28:33.101Z,99061.94
2023-02-25T14:31:15.948Z,99059.84
2023-02-25T14:34:00.812Z,99056.69
2023-02-25T14:36:55.024Z,99057.94
2023-02-25T14:39:33.714Z,99057.94
2023-02-25T14:42:29.927Z,99067.66
2023-02-25T14:45:05.466Z,99064.78
2023-02-25T14:47:42.799Z,99060.31
2023-02-25T14:50:20.022Z,99062.94
2023-02-25T14:53:21.666Z,99065.03
2023-02-25T14:56:20.729Z,99070.63
2023-02-25T14:59:12.580Z,99074.41
2023-02-25T15:01:53.497Z,99071.22
2023-02-25T15:05:18.155Z,99067.22
2023-02-25T15:08:10.480Z,99061.94
2023-02-25T15:10:59.971Z,99071.34
2023-02-25T15:14:06.976Z,99082.31
2023-02-25T15:17:27.361Z,99089.66
2023-02-25T15:20:23.530Z,99087.25
2023-02-25T15:23:07.345Z,99088.03
2023-02-25T15:26:22.570Z,99091.72
2023-02-25T15:28:51.940Z,99086.00
2023-02-25T15:31:31.340Z,99090.00
2023-02-25T15:34:38.295Z,99096.53
2023-02-25T15:37:37.508Z,99108.31
2023-02-25T15:40:50.679Z,99119.88
2023-02-25T15:43:45.231Z,99133.84
2023-02-25T15:46:43.436Z,99159.81
2023-02-25T15:49:24.171Z,99178.22
2023-02-25T15:51:55.985Z,99202.09
2023-02-25T15:54:48.663Z,99209.78
2023-02-25T15:57:39.157Z,99223.34
2023-02-25T16:03:03.647Z,99234.47
2023-02-25T16:05:36.333Z,99238.94
2023-02-25T16:08:15.519Z,99236.88
2023-02-25T16:10:47.541Z,99245.13
2023-02-25T16:13:24.352Z,99237.59
2023-02-25T16:15:57.353Z,99227.69
2023-02-25T16:18:33.205Z,99219.00
2023-02-25T16:21:14.454Z,99216.72
2023-02-25T16:23:45.947Z,99224.97
2023-02-25T16:26:30.408Z,99223.50
2023-02-25T16:29:15.862Z,99226.13
2023-02-25T16:31:51.971Z,99234.59
2023-02-25T16:34:28.325Z,99228.31
2023-02-25T16:37:10.696Z,99243.06
2023-02-25T16:39:39.370Z,99241.00
2023-02-25T16:42:14.546Z,99242.63
2023-02-25T16:44:48.089Z,99250.28
2023-02-25T16:47:25.469Z,99244.00
2023-02-25T16:49:57.917Z,99248.47
2023-02-25T16:52:32.170Z,99251.88
2023-02-25T16:55:05.607Z,99261.63
2023-02-25T16:57:36.294Z,99263.25
2023-02-25T17:00:17.132Z,99267.69
2023-02-25T17:02:48.857Z,99265.28
2023-02-25T17:05:29.166Z,99278.44
2023-02-25T17:08:01.150Z,99280.47
2023-02-25T17:10:35.200Z,99288.38
2023-02-25T17:13:05.261Z,99295.69
2023-02-25T17:15:36.534Z,99292.25
2023-02-25T17:18:11.042Z,99303.78
2023-02-25T17:20:42.585Z,99299.78
2023-02-25T17:23:14.299Z,99298.16
2023-02-25T17:25:46.333Z,99308.13
2023-02-25T17:28:22.797Z,99303.28
2023-02-25T17:30:52.429Z,99318.28
2023-02-25T17:33:26.295Z,99317.69
2023-02-25T17:36:01.322Z,99311.84
2023-02-25T17:38:30.103Z,99320.97
2023-02-25T17:40:59.380Z,99327.47
2023-02-25T17:43:36.158Z,99331.78
2023-02-25T17:46:17.708Z,99339.31
2023-02-25T17:48:53.442Z,99340.50
2023-02-25T17:51:33.469Z,99349.63
2023-02-25T17:54:07.866Z,99348.81
2023-02-25T17:56:38.031Z,99357.13
2023-02-25T17:59:28.628Z,99360.22
2023-02-25T18:01:59.768Z,99362.25
2023-02-25T18:04:36.041Z,99359.06
2023-02-25T18:07:29.857Z,99354.41
2023-02-25T18:09:58.580Z,99357.69
2023-02-25T18:12:29.517Z,99378.34
2023-02-25T18:15:00.422Z,99371.69
2023-02-25T18:17:30.609Z,99379.19
2023-02-25T18:20:01.922Z,99380.22
2023-02-25T18:22:39.140Z,99388.34
2023-02-25T18:25:30.266Z,99395.84
2023-02-25T18:27:58.946Z,99391.59
2023-02-25T18:30:30.636Z,99402.56
2023-02-25T18:33:00.025Z,99408.59
2023-02-25T18:35:31.082Z,99400.91
2023-02-25T18:38:01.782Z,99411.84
2023-02-25T18:40:32.971Z,99414.94
2023-02-25T18:43:01.735Z,99426.66
2023-02-25T18:45:32.421Z,99435.56
2023-02-25T18:48:01.756Z,99424.88
2023-02-25T18:50:33.113Z,99431.56
2023-02-25T18:53:03.138Z,99431.41
2023-02-25T18:55:34.148Z,99445.38
2023-02-25T18:58:02.911Z,99439.75
2023-02-25T19:00:31.358Z,99443.00
2023-02-25T19:03:02.236Z,99451.09
2023-02-25T19:05:31.402Z,99443.69
2023-02-25T19:08:00.022Z,99460.50
2023-02-25T19:10:34.141Z,99458.69
2023-02-25T19:13:05.429Z,99456.69
2023-02-25T19:15:33.994Z,99461.94
2023-02-25T19:18:02.481Z,99460.13
2023-02-25T19:20:30.799Z,99465.38
2023-02-25T19:22:59.098Z,99462.53
2023-02-25T19:25:31.932Z,99460.69
2023-02-25T19:28:00.221Z,99474.66
2023-02-25T19:30:32.085Z,99489.16
2023-02-25T19:33:03.482Z,99481.50
2023-02-25T19:35:36.126Z,99473.81
2023-02-25T19:38:04.708Z,99478.91
2023-02-25T19:40:35.048Z,99477.72
2023-02-25T19:43:04.678Z,99493.25
2023-02-25T19:45:33.983Z,99492.44
2023-02-25T19:48:02.342Z,99497.50
2023-02-25T19:50:34.665Z,99502.53
2023-02-25T19:53:05.581Z,99519.69
2023-02-25T19:55:35.641Z,99525.94
2023-02-25T19:58:03.953Z,99530.38
2023-02-25T20:00:32.623Z,99527.75
2023-02-25T20:03:00.925Z,99524.31
2023-02-25T20:05:29.396Z,99533.22
2023-02-25T20:07:57.832Z,99530.78
2023-02-25T20:10:26.275Z,99534.44
2023-02-25T20:12:55.962Z,99544.34
2023-02-25T20:15:24.243Z,99552.22
2023-02-25T20:17:55.050Z,99547.38
2023-02-25T20:20:23.879Z,99552.63
2023-02-25T20:22:52.465Z,99551.00
2023-02-25T20:25:21.266Z,99553.81
2023-02-25T20:27:49.591Z,99554.22
2023-02-25T20:30:19.600Z,99566.56
2023-02-25T20:32:48.110Z,99558.06
2023-02-25T20:35:21.315Z,99563.75
2023-02-25T20:38:11.046Z,99566.78
2023-02-25T20:40:39.672Z,99563.34
2023-02-25T20:43:10.139Z,99569.56
2023-02-25T20:45:41.146Z,99575.03
2023-02-25T20:48:22.226Z,99566.78
2023-02-25T20:50:51.178Z,99574.03
2023-02-25T20:53:19.905Z,99577.66
2023-02-25T20:55:48.171Z,99577.25
2023-02-25T20:58:17.151Z,99587.75
2023-02-25T21:00:46.815Z,99583.72
2023-02-25T21:03:15.155Z,99593.41
2023-02-25T21:05:43.583Z,99583.94
2023-02-25T21:08:11.866Z,99596.44
2023-02-25T21:10:40.136Z,99601.09
2023-02-25T21:13:08.425Z,99604.91
2023-02-25T21:15:36.860Z,99607.75
2023-02-25T21:18:06.813Z,99621.03
2023-02-25T21:20:35.129Z,99610.97
2023-02-25T21:23:03.545Z,99611.16
2023-02-25T21:25:32.076Z,99610.56
2023-02-25T21:28:00.423Z,99614.19
2023-02-25T21:30:28.921Z,99614.38
2023-02-25T21:32:57.624Z,99616.38
2023-02-25T21:35:27.356Z,99616.59
2023-02-25T21:37:55.656Z,99615.97
2023-02-25T21:40:23.964Z,99616.97
2023-02-25T21:42:52.311Z,99617.34
2023-02-25T21:45:20.564Z,99625.22
2023-02-25T21:47:48.923Z,99612.50
2023-02-25T21:50:18.123Z,99613.53
2023-02-25T21:52:47.948Z,99621.38
2023-02-25T21:55:16.511Z,99616.53
2023-02-25T21:57:45.060Z,99618.56
2023-02-25T22:00:15.505Z,99615.53
2023-02-25T22:02:44.008Z,99634.88
2023-02-25T22:05:12.386Z,99630.84
2023-02-25T22:07:40.666Z,99637.28
2023-02-25T22:10:12.684Z,99638.31
2023-02-25T22:12:40.988Z,99632.44
2023-02-25T22:15:11.088Z,99638.88
2023-02-25T22:17:39.827Z,99646.16
2023-02-25T22:20:10.148Z,99648.13
2023-02-25T22:22:39.093Z,99640.28
2023-02-25T22:25:09.626Z,99639.88
2023-02-25T22:27:38.256Z,99643.50
2023-02-25T22:30:08.855Z,99639.03
2023-02-25T22:32:37.743Z,99642.28
2023-02-25T22:35:07.743Z,99641.47
2023-02-25T22:37:36.178Z,99648.72
2023-02-25T22:40:05.345Z,99650.72
2023-02-25T22:42:35.087Z,99651.72
2023-02-25T22:45:03.459Z,99649.47
2023-02-25T22:47:32.404Z,99645.25
2023-02-25T22:50:00.759Z,99644.84
2023-02-25T22:52:29.232Z,99649.28
2023-02-25T22:54:57.737Z,99644.41
2023-02-25T22:57:26.365Z,99664.56
2023-02-25T22:59:56.160Z,99652.66
2023-02-25T23:02:24.842Z,99655.28
2023-02-25T23:04:53.279Z,99656.50
2023-02-25T23:07:21.657Z,99655.06
2023-02-25T23:09:50.067Z,99661.50
2023-02-25T23:12:19.783Z,99656.47
2023-02-25T23:14:49.018Z,99672.38
2023-02-25T23:17:20.763Z,99675.19
2023-02-25T23:19:49.687Z,99673.97
2023-02-25T23:22:24.992Z,99692.09
2023-02-25T23:24:53.360Z,99682.00
2023-02-25T23:27:21.707Z,99685.84
2023-02-25T23:29:50.135Z,99690.25
2023-02-25T23:32:19.948Z,99681.78
2023-02-25T23:34:49.624Z,99684.78
2023-02-25T23:37:18.111Z,99685.78
2023-02-25T23:39:46.491Z,99686.81
2023-02-25T23:42:14.839Z,99689.00
2023-02-25T23:44:43.191Z,99687.56
2023-02-25T23:47:11.711Z,99685.31
2023-02-25T23:49:41.486Z,99686.13
2023-02-25T23:52:09.932Z,99687.50
2023-02-25T23:54:38.303Z,99682.28
2023-02-25T23:57:07.155Z,99686.72
2023-02-25T23:59:35.899Z,99685.28
